Time;durP1;ratioP1;P1;durP2;ratioP2;P2;SDS_P1;SDS_P2;PMS_P1;PMS_P2;Temp;Humidity;BMP_temperature;BMP_pressure;BME280_temperature;BME280_humidity;BME280_pressure;Samples;Min_cycle;Max_cycle;Signal;HPM_P1;HPM_P2
2022/02/14 00:00:32;;;;;;;5.30;4.00;;;6.30;74.70;;;;;;4986042;28;20034;-75
2022/02/14 00:02:57;;;;;;;6.45;3.53;;;6.20;74.60;;;;;;4986464;28;20036;-76
2022/02/14 00:05:23;;;;;;;6.95;3.78;;;6.20;74.80;;;;;;4986047;28;20042;-76
2022/02/14 00:07:49;;;;;;;6.53;4.20;;;6.20;74.90;;;;;;4989073;28;20044;-75
2022/02/14 00:10:15;;;;;;;7.28;4.13;;;6.20;74.80;;;;;;4992738;28;20924;-74
2022/02/14 00:12:42;;;;;;;6.30;4.13;;;6.30;74.80;;;;;;4985517;28;20038;-76
2022/02/14 00:15:12;;;;;;;8.45;3.53;;;6.20;74.90;;;;;;4985037;28;20054;-75
2022/02/14 00:17:38;;;;;;;8.13;3.95;;;6.20;74.90;;;;;;4985115;28;20062;-75
2022/02/14 00:20:05;;;;;;;7.55;3.83;;;6.20;74.80;;;;;;4986083;28;20042;-74
2022/02/14 00:22:30;;;;;;;7.22;4.30;;;6.10;75.00;;;;;;4987944;28;20049;-76
2022/02/14 00:24:57;;;;;;;9.77;4.15;;;6.00;75.40;;;;;;4988912;28;20030;-75
2022/02/14 00:27:23;;;;;;;7.25;3.45;;;6.00;75.30;;;;;;4986189;28;20026;-76
2022/02/14 00:29:49;;;;;;;7.28;3.42;;;6.00;75.40;;;;;;4987962;28;20795;-76
2022/02/14 00:32:15;;;;;;;6.15;4.22;;;6.00;75.40;;;;;;4984357;28;20142;-76
2022/02/14 00:34:41;;;;;;;7.07;3.63;;;6.10;75.00;;;;;;4980181;28;20386;-75
2022/02/14 00:37:08;;;;;;;9.55;3.70;;;6.00;75.00;;;;;;4983414;28;20015;-75
2022/02/14 00:39:34;;;;;;;6.38;4.05;;;6.00;75.50;;;;;;4984778;28;20038;-78
2022/02/14 00:41:59;;;;;;;9.43;3.70;;;5.90;75.50;;;;;;4980278;28;20065;-74
2022/02/14 00:44:25;;;;;;;10.38;4.45;;;5.90;75.60;;;;;;4987902;28;20837;-75
2022/02/14 00:46:51;;;;;;;9.23;4.25;;;6.00;75.40;;;;;;4986924;28;20120;-73
2022/02/14 00:49:17;;;;;;;8.75;4.07;;;6.00;75.50;;;;;;4987022;28;20113;-74
2022/02/14 00:51:42;;;;;;;11.43;5.10;;;6.00;75.20;;;;;;4985969;28;20122;-73
2022/02/14 00:54:09;;;;;;;7.22;3.85;;;5.90;75.30;;;;;;4988369;28;20026;-73
2022/02/14 00:56:35;;;;;;;11.90;4.32;;;5.90;75.40;;;;;;4985445;28;20038;-74
2022/02/14 00:59:01;;;;;;;8.60;4.13;;;5.90;75.40;;;;;;4986232;28;20076;-74
2022/02/14 01:01:29;;;;;;;5.63;4.03;;;5.90;75.50;;;;;;4990029;28;20829;-74
2022/02/14 01:03:55;;;;;;;6.88;3.47;;;5.90;75.10;;;;;;4985274;28;20113;-74
2022/02/14 01:06:22;;;;;;;7.93;3.67;;;5.90;75.40;;;;;;4985118;28;20101;-74
2022/02/14 01:08:47;;;;;;;7.07;4.07;;;5.90;75.30;;;;;;4979326;28;20035;-72
2022/02/14 01:11:13;;;;;;;8.23;3.80;;;5.80;74.90;;;;;;4985257;28;20085;-71
2022/02/14 01:13:40;;;;;;;8.30;3.60;;;5.80;74.80;;;;;;4983404;28;20039;-71
2022/02/14 01:16:06;;;;;;;8.13;3.38;;;5.80;75.20;;;;;;4985061;28;20044;-74
2022/02/14 01:18:32;;;;;;;7.03;3.60;;;5.70;75.50;;;;;;4985390;28;20042;-74
2022/02/14 01:20:57;;;;;;;8.50;4.00;;;5.70;75.60;;;;;;4986415;28;20065;-71
2022/02/14 01:23:23;;;;;;;8.48;3.85;;;5.60;75.50;;;;;;4986842;28;20415;-71
2022/02/14 01:25:49;;;;;;;10.35;3.60;;;5.60;75.30;;;;;;4988203;28;20037;-71
2022/02/14 01:28:15;;;;;;;10.50;4.85;;;5.60;75.50;;;;;;4987308;28;20030;-71
2022/02/14 01:30:41;;;;;;;8.98;3.63;;;5.70;75.10;;;;;;4985602;28;20711;-71
2022/02/14 01:33:07;;;;;;;8.52;3.72;;;5.60;75.20;;;;;;4986076;28;20033;-71
2022/02/14 01:35:33;;;;;;;11.55;4.25;;;5.60;75.30;;;;;;4985172;28;20037;-71
2022/02/14 01:37:59;;;;;;;8.23;3.42;;;5.70;75.10;;;;;;4987415;28;20395;-71
2022/02/14 01:40:25;;;;;;;7.55;3.42;;;5.70;75.10;;;;;;4984116;28;20383;-71
2022/02/14 01:42:50;;;;;;;15.10;3.35;;;5.60;74.70;;;;;;4986312;28;20447;-71
2022/02/14 01:45:16;;;;;;;7.43;3.50;;;5.60;74.80;;;;;;4987156;28;20034;-70
2022/02/14 01:47:42;;;;;;;6.70;3.88;;;5.60;74.60;;;;;;4985069;28;20070;-71
2022/02/14 01:50:11;;;;;;;9.07;3.53;;;5.60;74.60;;;;;;5000315;28;20049;-71
2022/02/14 01:52:37;;;;;;;5.80;3.17;;;5.60;74.80;;;;;;4982893;28;20038;-70
2022/02/14 01:55:05;;;;;;;11.38;3.42;;;5.60;74.50;;;;;;4986704;28;20037;-71
2022/02/14 01:57:34;;;;;;;7.13;3.65;;;5.70;74.20;;;;;;4983698;28;20066;-71
2022/02/14 02:00:00;;;;;;;8.60;4.43;;;5.60;73.80;;;;;;5000078;28;20030;-71
2022/02/14 02:02:26;;;;;;;9.00;3.85;;;5.70;73.90;;;;;;4985380;28;20037;-71
2022/02/14 02:04:52;;;;;;;6.50;3.15;;;5.70;73.60;;;;;;4982588;28;20031;-71
2022/02/14 02:07:18;;;;;;;7.00;3.55;;;5.60;73.70;;;;;;4987293;28;20026;-74
2022/02/14 02:09:45;;;;;;;8.20;3.90;;;5.60;73.50;;;;;;4987616;28;20523;-74
2022/02/14 02:12:23;;;;;;;6.20;3.50;;;5.60;73.60;;;;;;4985077;28;20160;-71
2022/02/14 02:14:57;;;;;;;4.63;3.25;;;5.50;73.50;;;;;;4984029;28;20030;-71
2022/02/14 02:17:27;;;;;;;6.38;3.13;;;5.60;73.70;;;;;;4984677;28;20041;-70
2022/02/14 02:19:53;;;;;;;5.35;3.60;;;5.60;73.70;;;;;;4983271;28;20129;-71
2022/02/14 02:22:19;;;;;;;10.10;3.38;;;5.60;73.40;;;;;;4984720;28;20034;-71
2022/02/14 02:24:47;;;;;;;5.68;3.60;;;5.60;72.80;;;;;;4976659;28;20073;-71
2022/02/14 02:27:13;;;;;;;7.55;3.47;;;5.60;73.00;;;;;;4984286;28;20034;-71
2022/02/14 02:29:39;;;;;;;7.53;2.92;;;5.50;73.10;;;;;;4984312;28;20088;-71
2022/02/14 02:32:06;;;;;;;8.18;3.00;;;5.60;72.80;;;;;;4984881;28;20033;-71
2022/02/14 02:34:35;;;;;;;6.95;3.63;;;5.60;72.30;;;;;;4984082;28;20085;-71
2022/02/14 02:37:01;;;;;;;6.85;3.00;;;5.60;72.50;;;;;;4983951;28;20056;-71
2022/02/14 02:39:27;;;;;;;5.45;3.38;;;5.70;71.90;;;;;;4984870;28;20482;-71
2022/02/14 02:41:53;;;;;;;5.03;3.03;;;5.60;71.80;;;;;;4984150;28;20556;-71
2022/02/14 02:44:19;;;;;;;8.45;3.25;;;5.60;71.50;;;;;;4983037;28;20041;-72
2022/02/14 02:46:45;;;;;;;6.88;2.88;;;5.50;72.30;;;;;;4983749;28;20502;-71
2022/02/14 02:49:17;;;;;;;6.32;3.10;;;5.50;72.30;;;;;;4983707;28;20038;-71
2022/02/14 02:51:45;;;;;;;8.32;3.28;;;5.50;72.10;;;;;;4985972;28;20027;-71
2022/02/14 02:54:11;;;;;;;7.15;2.85;;;5.50;72.00;;;;;;4983453;28;20070;-72
2022/02/14 02:56:40;;;;;;;7.40;2.92;;;5.40;72.10;;;;;;4982286;28;20022;-72
2022/02/14 02:59:06;;;;;;;6.00;2.90;;;5.40;72.20;;;;;;4983902;28;20624;-71
2022/02/14 03:01:32;;;;;;;6.35;3.00;;;5.40;72.20;;;;;;4983547;28;20038;-71
2022/02/14 03:04:00;;;;;;;6.50;2.95;;;5.40;72.20;;;;;;4984650;28;20501;-71
2022/02/14 03:06:26;;;;;;;7.78;3.20;;;5.50;72.20;;;;;;4980057;28;20129;-74
2022/02/14 03:08:51;;;;;;;5.28;2.80;;;5.40;71.80;;;;;;4983608;28;20142;-73
2022/02/14 03:11:20;;;;;;;3.08;2.35;;;5.40;72.10;;;;;;4983339;28;20038;-74
2022/02/14 03:13:47;;;;;;;7.70;3.55;;;5.40;72.20;;;;;;4983661;28;20027;-73
2022/02/14 03:16:13;;;;;;;7.43;3.13;;;5.40;72.40;;;;;;4983248;28;20030;-73
2022/02/14 03:18:40;;;;;;;8.23;2.67;;;5.40;72.10;;;;;;4983694;28;20041;-71
2022/02/14 03:21:06;;;;;;;4.95;2.70;;;5.40;72.00;;;;;;4985310;28;20034;-71
2022/02/14 03:23:32;;;;;;;5.97;3.30;;;5.40;71.90;;;;;;4985468;28;20042;-71
2022/02/14 03:25:58;;;;;;;5.82;2.67;;;5.40;71.50;;;;;;4983274;28;20037;-72
2022/02/14 03:28:24;;;;;;;5.65;2.72;;;5.40;71.60;;;;;;4983549;28;20030;-71
2022/02/14 03:30:50;;;;;;;7.35;2.30;;;5.40;71.30;;;;;;4983461;28;20034;-71
2022/02/14 03:33:15;;;;;;;5.57;2.42;;;5.30;71.50;;;;;;4983040;28;20244;-71
2022/02/14 03:35:41;;;;;;;7.22;3.28;;;5.30;71.70;;;;;;4981554;28;20030;-71
2022/02/14 03:38:07;;;;;;;5.15;3.05;;;5.30;71.50;;;;;;4983231;28;20431;-71
2022/02/14 03:40:33;;;;;;;5.82;3.10;;;5.30;71.60;;;;;;4983565;28;20092;-71
2022/02/14 03:43:01;;;;;;;5.68;2.67;;;5.30;71.50;;;;;;4983300;28;20042;-71
2022/02/14 03:45:27;;;;;;;5.30;3.15;;;5.30;71.50;;;;;;4981512;28;20030;-71
2022/02/14 03:47:53;;;;;;;7.70;2.65;;;5.30;71.70;;;;;;4982955;28;20042;-71
2022/02/14 03:50:19;;;;;;;5.63;2.78;;;5.20;71.80;;;;;;4982908;28;20026;-72
2022/02/14 03:52:45;;;;;;;6.50;2.85;;;5.20;71.60;;;;;;4983000;28;20482;-71
2022/02/14 03:55:11;;;;;;;4.50;2.78;;;5.10;71.80;;;;;;4983233;28;20027;-72
2022/02/14 03:57:37;;;;;;;4.38;3.15;;;5.20;71.60;;;;;;4982709;28;20402;-71
2022/02/14 04:00:06;;;;;;;7.85;2.70;;;5.00;71.60;;;;;;4982963;28;20118;-71
2022/02/14 04:02:38;;;;;;;6.82;3.05;;;5.00;72.00;;;;;;4984507;28;20128;-71
2022/02/14 04:05:04;;;;;;;8.15;3.10;;;5.00;71.90;;;;;;4984081;28;20061;-72
2022/02/14 04:07:30;;;;;;;3.88;2.50;;;5.00;71.90;;;;;;4986262;28;20486;-71
2022/02/14 04:09:56;;;;;;;5.45;2.47;;;5.00;72.10;;;;;;4986337;28;20089;-74
2022/02/14 04:12:22;;;;;;;4.30;2.40;;;4.90;72.00;;;;;;4985883;28;20030;-74
2022/02/14 04:14:48;;;;;;;8.93;3.40;;;4.90;71.90;;;;;;4987388;28;20034;-73
2022/02/14 04:17:15;;;;;;;7.72;2.65;;;5.00;71.60;;;;;;4990637;28;20030;-73
2022/02/14 04:19:40;;;;;;;4.80;2.33;;;5.10;71.20;;;;;;4996237;28;20038;-73
2022/02/14 04:22:06;;;;;;;5.18;2.33;;;5.00;71.00;;;;;;4987533;28;20463;-73
2022/02/14 04:24:32;;;;;;;4.80;2.55;;;5.10;70.60;;;;;;4986419;28;20527;-73
2022/02/14 04:26:58;;;;;;;5.75;2.35;;;5.10;70.50;;;;;;4985879;28;20070;-73
2022/02/14 04:29:24;;;;;;;6.63;2.50;;;5.10;70.60;;;;;;4987121;28;20069;-73
2022/02/14 04:31:50;;;;;;;5.40;2.50;;;5.00;70.40;;;;;;4993404;28;20081;-73
2022/02/14 04:34:19;;;;;;;6.25;2.70;;;5.00;70.80;;;;;;4985350;28;20037;-74
2022/02/14 04:36:46;;;;;;;4.80;2.40;;;5.00;70.40;;;;;;4985979;28;20125;-73
2022/02/14 04:39:11;;;;;;;3.92;2.30;;;4.90;70.70;;;;;;4985818;28;20030;-74
2022/02/14 04:41:37;;;;;;;9.07;3.05;;;5.00;70.20;;;;;;4985545;28;20050;-73
2022/02/14 04:44:04;;;;;;;3.90;2.17;;;5.00;69.80;;;;;;4989401;28;20029;-74
2022/02/14 04:46:29;;;;;;;4.05;2.33;;;5.00;70.30;;;;;;4985827;28;20034;-74
2022/02/14 04:48:55;;;;;;;3.55;1.75;;;4.90;70.20;;;;;;4986207;28;20030;-73
2022/02/14 04:51:21;;;;;;;3.17;2.22;;;4.90;70.10;;;;;;4986152;28;20026;-73
2022/02/14 04:53:47;;;;;;;8.43;2.78;;;4.90;69.90;;;;;;4987291;28;20061;-74
2022/02/14 04:56:13;;;;;;;4.35;2.35;;;5.00;69.60;;;;;;4985265;28;20038;-73
2022/02/14 04:58:39;;;;;;;6.82;2.10;;;5.00;69.60;;;;;;4986840;28;20023;-73
2022/02/14 05:01:05;;;;;;;6.43;2.35;;;5.10;68.90;;;;;;4987864;28;20044;-74
2022/02/14 05:03:30;;;;;;;4.57;2.05;;;5.10;68.90;;;;;;4989869;28;20031;-73
2022/02/14 05:05:56;;;;;;;4.47;2.15;;;5.10;68.90;;;;;;4990123;28;20701;-74
2022/02/14 05:08:22;;;;;;;2.83;2.13;;;5.10;68.80;;;;;;4976758;28;20030;-73
2022/02/14 05:10:48;;;;;;;2.50;1.73;;;5.00;68.50;;;;;;4985263;28;20035;-74
2022/02/14 05:13:13;;;;;;;5.25;1.83;;;5.00;68.60;;;;;;4985823;28;20919;-71
2022/02/14 05:15:39;;;;;;;4.38;2.47;;;5.00;68.80;;;;;;4984808;28;20026;-71
2022/02/14 05:18:05;;;;;;;4.32;2.17;;;5.10;68.80;;;;;;4984535;28;20029;-71
2022/02/14 05:20:31;;;;;;;3.20;2.40;;;5.10;68.20;;;;;;4984863;28;20037;-71
2022/02/14 05:22:57;;;;;;;5.10;2.40;;;5.10;67.90;;;;;;4985045;28;20034;-73
2022/02/14 05:25:23;;;;;;;3.80;2.15;;;5.10;67.90;;;;;;4984255;28;20034;-73
2022/02/14 05:27:49;;;;;;;6.47;1.80;;;5.10;68.10;;;;;;4985338;28;20042;-73
2022/02/14 05:30:15;;;;;;;3.45;1.70;;;5.20;67.30;;;;;;4985439;28;20060;-73
2022/02/14 05:32:41;;;;;;;5.82;2.13;;;5.20;67.30;;;;;;4992009;28;20038;-73
2022/02/14 05:35:07;;;;;;;5.68;1.90;;;5.20;67.00;;;;;;4990540;28;20031;-73
2022/02/14 05:37:32;;;;;;;5.40;1.90;;;5.30;67.50;;;;;;4987280;28;20030;-73
2022/02/14 05:39:58;;;;;;;3.47;1.85;;;5.30;67.00;;;;;;4977912;28;20450;-73
2022/02/14 05:42:24;;;;;;;3.65;2.35;;;5.30;66.90;;;;;;4981753;28;20030;-74
2022/02/14 05:44:50;;;;;;;5.32;1.98;;;5.40;66.40;;;;;;4984777;28;20054;-72
2022/02/14 05:47:16;;;;;;;3.10;2.00;;;5.30;66.50;;;;;;4982379;28;20076;-72
2022/02/14 05:49:41;;;;;;;7.07;2.25;;;5.30;66.40;;;;;;4981608;28;20038;-71
2022/02/14 05:52:08;;;;;;;4.28;2.00;;;5.20;66.90;;;;;;4991299;28;20721;-72
2022/02/14 05:54:34;;;;;;;3.22;1.65;;;5.30;66.40;;;;;;4980574;28;20034;-73
2022/02/14 05:57:00;;;;;;;4.32;2.05;;;5.30;66.40;;;;;;4987007;28;20084;-73
2022/02/14 05:59:26;;;;;;;5.28;2.20;;;5.30;66.40;;;;;;4981061;28;20038;-74
2022/02/14 06:01:52;;;;;;;3.58;1.75;;;5.30;66.10;;;;;;4978731;28;20501;-73
2022/02/14 06:04:18;;;;;;;3.85;1.92;;;5.30;66.20;;;;;;4979468;28;20057;-73
2022/02/14 06:06:44;;;;;;;5.00;2.05;;;5.20;66.30;;;;;;4982412;28;20409;-71
2022/02/14 06:09:11;;;;;;;2.45;2.00;;;5.20;66.40;;;;;;4984009;28;20039;-71
2022/02/14 06:11:37;;;;;;;7.40;2.30;;;5.20;66.20;;;;;;4976168;28;20041;-71
2022/02/14 06:14:03;;;;;;;4.25;2.25;;;5.20;66.60;;;;;;4988191;28;20022;-71
2022/02/14 06:16:28;;;;;;;3.40;1.90;;;5.20;66.90;;;;;;4980412;28;20027;-71
2022/02/14 06:18:54;;;;;;;3.50;2.20;;;5.30;66.30;;;;;;4978391;28;20054;-71
2022/02/14 06:21:20;;;;;;;4.18;2.03;;;5.30;66.30;;;;;;4979829;28;20038;-71
2022/02/14 06:23:46;;;;;;;4.78;2.50;;;5.30;66.00;;;;;;4978990;28;20034;-71
2022/02/14 06:26:12;;;;;;;2.78;1.88;;;5.40;65.80;;;;;;4987314;28;20125;-72
2022/02/14 06:28:38;;;;;;;5.03;2.15;;;5.40;65.40;;;;;;4978659;28;20041;-71
2022/02/14 06:31:13;;;;;;;5.15;2.30;;;5.40;65.30;;;;;;4983634;28;20034;-71
2022/02/14 06:33:39;;;;;;;9.65;2.42;;;5.50;65.20;;;;;;4978738;28;20160;-71
2022/02/14 06:36:05;;;;;;;4.15;1.90;;;5.40;65.50;;;;;;4983422;28;20128;-71
2022/02/14 06:38:32;;;;;;;4.35;2.38;;;5.40;65.20;;;;;;4982456;28;20033;-71
2022/02/14 06:40:57;;;;;;;3.20;2.13;;;5.40;65.10;;;;;;4987799;28;20030;-71
2022/02/14 06:43:23;;;;;;;5.10;2.13;;;5.40;65.70;;;;;;4989278;28;20034;-72
2022/02/14 06:45:50;;;;;;;4.38;2.10;;;5.40;65.10;;;;;;4974232;28;20498;-71
2022/02/14 06:48:16;;;;;;;5.45;2.30;;;5.40;65.80;;;;;;4982982;28;20053;-72
2022/02/14 06:50:44;;;;;;;6.47;2.10;;;5.40;65.40;;;;;;4983940;28;20429;-71
2022/02/14 06:53:10;;;;;;;4.15;2.20;;;5.40;65.10;;;;;;4976558;28;20027;-71
2022/02/14 06:55:36;;;;;;;4.13;1.80;;;5.40;65.30;;;;;;4986828;28;20045;-71
2022/02/14 06:58:03;;;;;;;10.63;2.40;;;5.40;65.00;;;;;;4995243;28;20038;-71
2022/02/14 07:00:29;;;;;;;3.97;1.98;;;5.50;65.10;;;;;;4972090;28;20057;-72
2022/02/14 07:02:55;;;;;;;3.92;2.10;;;5.50;64.80;;;;;;4976391;28;20068;-72
2022/02/14 07:05:22;;;;;;;5.05;2.78;;;5.40;64.90;;;;;;4975586;28;20117;-71
2022/02/14 07:07:49;;;;;;;8.57;2.40;;;5.50;65.70;;;;;;4988360;28;20026;-71
2022/02/14 07:10:15;;;;;;;5.20;2.17;;;5.50;65.20;;;;;;4977034;28;20030;-71
2022/02/14 07:12:42;;;;;;;3.95;1.90;;;5.50;64.70;;;;;;4980815;28;20033;-71
2022/02/14 07:15:09;;;;;;;7.03;2.65;;;5.60;64.90;;;;;;4981333;28;20034;-71
2022/02/14 07:17:36;;;;;;;8.15;2.33;;;5.70;64.30;;;;;;4978329;28;20057;-71
2022/02/14 07:20:03;;;;;;;3.83;2.22;;;5.80;64.10;;;;;;4980966;28;20053;-71
2022/02/14 07:22:28;;;;;;;5.43;2.10;;;5.70;63.80;;;;;;4978522;28;20038;-71
2022/02/14 07:24:54;;;;;;;5.78;2.17;;;5.70;64.30;;;;;;4982468;28;20039;-71
2022/02/14 07:27:20;;;;;;;4.75;2.38;;;5.70;64.40;;;;;;4982806;28;20125;-71
2022/02/14 07:29:46;;;;;;;3.80;2.13;;;5.80;64.00;;;;;;4974264;28;20502;-71
2022/02/14 07:32:11;;;;;;;4.38;2.10;;;5.90;63.80;;;;;;4983178;28;20041;-71
2022/02/14 07:34:37;;;;;;;4.63;2.00;;;5.90;63.20;;;;;;4982563;28;20038;-71
2022/02/14 07:37:04;;;;;;;6.45;2.30;;;5.90;63.40;;;;;;4983726;28;20514;-71
2022/02/14 07:39:30;;;;;;;5.00;2.15;;;6.00;63.50;;;;;;4998005;28;20038;-72
2022/02/14 07:41:57;;;;;;;6.32;1.98;;;6.00;63.40;;;;;;4988883;28;20089;-71
2022/02/14 07:44:24;;;;;;;4.38;2.17;;;6.00;62.90;;;;;;4991060;28;20056;-71
2022/02/14 07:46:51;;;;;;;5.88;2.63;;;6.10;62.40;;;;;;4986200;28;20057;-71
2022/02/14 07:49:21;;;;;;;7.22;2.40;;;6.10;62.40;;;;;;4976071;28;20043;-71
2022/02/14 07:51:47;;;;;;;5.10;2.13;;;6.20;62.40;;;;;;4993576;28;20478;-72
2022/02/14 07:54:13;;;;;;;3.17;1.65;;;6.30;62.10;;;;;;4986492;28;20032;-71
2022/02/14 07:56:39;;;;;;;5.30;2.38;;;6.30;62.40;;;;;;4988462;28;20066;-71
2022/02/14 07:59:06;;;;;;;7.18;2.95;;;6.40;61.70;;;;;;4995118;28;20018;-71
2022/02/14 08:01:32;;;;;;;4.60;2.45;;;6.50;61.60;;;;;;4989373;28;20045;-71
2022/02/14 08:03:58;;;;;;;5.65;2.30;;;6.60;61.50;;;;;;4976298;28;20026;-72
2022/02/14 08:06:24;;;;;;;5.55;2.20;;;6.90;60.20;;;;;;4986298;28;20034;-74
2022/02/14 08:08:50;;;;;;;3.72;1.98;;;7.10;59.80;;;;;;4984983;28;20026;-73
2022/02/14 08:11:17;;;;;;;3.85;2.15;;;7.30;58.90;;;;;;4979738;28;20190;-73
2022/02/14 08:13:43;;;;;;;3.75;2.20;;;7.30;58.60;;;;;;4979018;28;20043;-73
2022/02/14 08:16:09;;;;;;;5.05;2.13;;;7.30;58.90;;;;;;4974454;28;20030;-73
2022/02/14 08:18:36;;;;;;;4.30;2.20;;;7.30;59.00;;;;;;4967848;28;20027;-76
2022/02/14 08:21:03;;;;;;;12.15;2.85;;;7.30;58.80;;;;;;4988084;28;20394;-76
2022/02/14 08:23:29;;;;;;;5.93;2.05;;;7.30;59.10;;;;;;4986122;28;20568;-79
2022/02/14 08:25:55;;;;;;;5.80;2.08;;;7.40;58.00;;;;;;4989596;28;20030;-76
2022/02/14 08:28:22;;;;;;;5.88;2.17;;;7.50;57.50;;;;;;4977713;28;20046;-77
2022/02/14 08:30:50;;;;;;;4.72;2.00;;;7.60;57.40;;;;;;4997916;28;20085;-77
2022/02/14 08:33:16;;;;;;;6.55;2.22;;;7.60;57.60;;;;;;4983880;28;20116;-77
2022/02/14 08:35:43;;;;;;;5.68;2.10;;;7.70;57.10;;;;;;4983892;28;20031;-75
2022/02/14 08:38:10;;;;;;;3.28;2.08;;;7.80;58.00;;;;;;4980188;28;20031;-74
2022/02/14 08:40:37;;;;;;;4.15;2.08;;;7.90;57.30;;;;;;4980288;28;20038;-73
2022/02/14 08:43:04;;;;;;;3.08;2.22;;;7.90;57.60;;;;;;4976092;28;20030;-73
2022/02/14 08:45:31;;;;;;;5.85;2.15;;;7.90;57.60;;;;;;4977815;28;20558;-73
2022/02/14 08:47:57;;;;;;;3.60;2.30;;;8.00;57.50;;;;;;4975401;28;20034;-73
2022/02/14 08:50:23;;;;;;;4.32;1.88;;;8.10;57.70;;;;;;4978475;28;20168;-73
2022/02/14 08:52:49;;;;;;;3.92;1.85;;;8.20;56.80;;;;;;4987899;28;20494;-74
2022/02/14 08:55:15;;;;;;;7.35;2.08;;;8.30;56.60;;;;;;4992513;28;20474;-82
2022/02/14 08:57:42;;;;;;;4.65;1.90;;;8.30;56.40;;;;;;4989045;28;20023;-74
2022/02/14 09:00:09;;;;;;;5.88;2.25;;;8.40;56.40;;;;;;4977396;28;20862;-75
2022/02/14 09:02:35;;;;;;;2.75;1.92;;;8.50;56.20;;;;;;4981512;28;20038;-74
2022/02/14 09:05:01;;;;;;;3.88;2.03;;;8.50;57.00;;;;;;4980960;28;20061;-74
2022/02/14 09:07:27;;;;;;;10.05;2.20;;;8.60;55.80;;;;;;4978305;28;20038;-75
2022/02/14 09:09:53;;;;;;;8.23;2.25;;;8.70;55.90;;;;;;4989613;28;20088;-75
2022/02/14 09:12:19;;;;;;;4.65;2.85;;;8.80;55.20;;;;;;4977918;28;20062;-75
2022/02/14 09:14:45;;;;;;;4.32;2.03;;;8.80;54.90;;;;;;4986943;28;20034;-74
2022/02/14 09:17:11;;;;;;;4.55;1.98;;;9.10;54.60;;;;;;4989471;28;20034;-74
2022/02/14 09:19:37;;;;;;;3.47;2.10;;;9.70;54.10;;;;;;4983832;28;20038;-74
2022/02/14 09:22:04;;;;;;;8.88;1.95;;;10.30;51.80;;;;;;4984395;28;20037;-76
2022/02/14 09:24:30;;;;;;;4.85;2.28;;;10.60;52.40;;;;;;4986466;28;20042;-74
2022/02/14 09:26:57;;;;;;;3.90;2.05;;;10.70;51.20;;;;;;4978708;28;20033;-73
2022/02/14 09:29:23;;;;;;;3.47;1.77;;;10.60;49.90;;;;;;4987335;28;20038;-75
2022/02/14 09:31:49;;;;;;;11.88;2.10;;;10.40;51.40;;;;;;4983704;28;20158;-75
2022/02/14 09:34:19;;;;;;;5.18;1.85;;;10.30;52.00;;;;;;4979998;28;20553;-74
2022/02/14 09:36:46;;;;;;;5.07;2.35;;;10.40;52.30;;;;;;4990820;28;20030;-74
2022/02/14 09:39:12;;;;;;;3.92;2.00;;;10.70;50.20;;;;;;4986767;28;20030;-74
2022/02/14 09:41:38;;;;;;;3.58;2.22;;;11.50;48.80;;;;;;4983800;28;20026;-76
2022/02/14 09:44:05;;;;;;;4.75;2.08;;;12.10;47.60;;;;;;4984641;28;20057;-75
2022/02/14 09:46:34;;;;;;;4.80;2.20;;;12.60;45.70;;;;;;4985956;28;20518;-76
2022/02/14 09:49:02;;;;;;;3.08;1.90;;;13.00;44.30;;;;;;4984362;28;20093;-76
2022/02/14 09:51:29;;;;;;;3.20;2.10;;;13.00;45.00;;;;;;4981872;28;20046;-76
2022/02/14 09:53:56;;;;;;;4.97;2.03;;;13.30;45.00;;;;;;4985623;28;20022;-79
2022/02/14 09:56:24;;;;;;;4.55;2.13;;;13.40;44.00;;;;;;4978985;28;20454;-77
2022/02/14 09:58:50;;;;;;;3.38;2.00;;;13.50;43.60;;;;;;4984361;28;20038;-77
2022/02/14 10:01:17;;;;;;;6.72;2.28;;;13.50;43.40;;;;;;4981071;28;20035;-77
2022/02/14 10:03:54;;;;;;;4.97;2.65;;;13.70;44.00;;;;;;4987177;28;20605;-74
2022/02/14 10:06:32;;;;;;;6.82;2.05;;;13.50;44.30;;;;;;4981216;28;20034;-74
2022/02/14 10:09:19;;;;;;;8.52;2.40;;;13.70;44.90;;;;;;4983501;28;20084;-74
2022/02/14 10:12:14;;;;;;;3.35;2.00;;;14.00;44.70;;;;;;4975476;28;20038;-73
2022/02/14 10:14:40;;;;;;;2.97;2.00;;;14.20;44.40;;;;;;4970507;28;20049;-73
2022/02/14 10:17:07;;;;;;;4.45;1.90;;;14.10;43.20;;;;;;4982801;28;20050;-74
2022/02/14 10:19:36;;;;;;;4.25;2.10;;;13.90;43.50;;;;;;4979691;28;20026;-75
2022/02/14 10:22:07;;;;;;;13.00;8.07;;;13.90;43.50;;;;;;4983194;28;20133;-78
2022/02/14 10:24:41;;;;;;;6.47;2.53;;;13.60;44.70;;;;;;4988517;28;20042;-76
2022/02/14 10:27:07;;;;;;;6.18;3.35;;;13.30;45.40;;;;;;4978887;28;20041;-77
2022/02/14 10:29:34;;;;;;;4.25;2.20;;;13.50;45.10;;;;;;4979380;28;20513;-76
2022/02/14 10:32:05;;;;;;;3.90;2.40;;;13.50;46.00;;;;;;4982371;28;20030;-76
2022/02/14 10:34:39;;;;;;;6.13;2.10;;;13.80;44.90;;;;;;4983197;28;20034;-75
2022/02/14 10:37:09;;;;;;;9.65;3.13;;;13.90;44.60;;;;;;4975670;28;20034;-77
2022/02/14 10:39:36;;;;;;;4.90;2.80;;;13.90;44.40;;;;;;4979182;28;20038;-76
2022/02/14 10:42:05;;;;;;;5.47;2.17;;;13.90;44.40;;;;;;4977365;28;20161;-78
2022/02/14 10:47:23;;;;;;;5.07;2.20;;;13.80;44.80;;;;;;4989136;28;20038;-79
2022/02/14 10:50:10;;;;;;;5.55;1.90;;;14.10;44.10;;;;;;4975273;28;20070;-77
2022/02/14 10:52:41;;;;;;;5.07;1.80;;;14.50;43.90;;;;;;4974241;28;20034;-77
2022/02/14 10:55:13;;;;;;;4.28;2.00;;;14.80;42.90;;;;;;4979222;28;20403;-77
2022/02/14 10:57:41;;;;;;;6.28;3.88;;;15.30;42.40;;;;;;4979753;28;20124;-77
2022/02/14 11:00:11;;;;;;;5.97;2.40;;;15.80;41.70;;;;;;4969353;28;20050;-77
2022/02/14 11:02:43;;;;;;;4.20;2.03;;;16.00;41.90;;;;;;4983313;28;20116;-76
2022/02/14 11:05:14;;;;;;;4.43;2.22;;;16.10;40.50;;;;;;4981429;28;20026;-76
2022/02/14 11:07:41;;;;;;;4.47;2.00;;;15.70;41.30;;;;;;4986977;28;20034;-77
2022/02/14 11:10:10;;;;;;;4.57;2.13;;;15.40;42.10;;;;;;4979944;28;20066;-77
2022/02/14 11:12:39;;;;;;;4.55;2.83;;;15.10;43.00;;;;;;4990050;28;20090;-74
2022/02/14 11:15:07;;;;;;;5.78;2.70;;;14.80;43.80;;;;;;4981986;28;20786;-77
2022/02/14 11:17:40;;;;;;;4.55;2.40;;;14.60;44.30;;;;;;4980503;28;20495;-72
2022/02/14 11:20:08;;;;;;;4.72;2.97;;;14.40;44.40;;;;;;4974500;28;20162;-77
2022/02/14 11:22:41;;;;;;;4.47;1.63;;;14.40;44.80;;;;;;4975172;28;20246;-76
2022/02/14 11:25:07;;;;;;;9.68;5.82;;;14.30;45.30;;;;;;4980785;28;20034;-76
2022/02/14 11:27:38;;;;;;;8.48;5.90;;;14.30;46.00;;;;;;4973115;28;20139;-75
2022/02/14 11:30:09;;;;;;;35.58;30.02;;;14.20;46.00;;;;;;4979614;28;20042;-75
2022/02/14 11:32:39;;;;;;;11.07;6.07;;;14.10;47.90;;;;;;4981237;28;20100;-75
2022/02/14 11:35:14;;;;;;;3.13;1.80;;;14.00;47.70;;;;;;4981054;28;20041;-75
2022/02/14 11:37:51;;;;;;;10.48;6.07;;;13.90;46.40;;;;;;4987456;28;20038;-75
2022/02/14 11:40:35;;;;;;;3.72;2.30;;;13.70;46.90;;;;;;4982302;28;20038;-75
2022/02/14 11:43:22;;;;;;;8.32;6.85;;;13.50;48.50;;;;;;4982156;28;20034;-75
2022/02/14 11:46:16;;;;;;;2.63;1.77;;;13.50;49.10;;;;;;4979460;28;20592;-76
2022/02/14 11:48:42;;;;;;;3.05;2.00;;;13.40;47.60;;;;;;4977657;28;20046;-75
2022/02/14 11:51:10;;;;;;;9.23;4.43;;;13.40;47.70;;;;;;4986186;28;20080;-75
2022/02/14 11:53:42;;;;;;;14.98;3.88;;;13.30;49.20;;;;;;4990093;28;20030;-75
2022/02/14 11:56:23;;;;;;;7.32;5.10;;;13.30;49.30;;;;;;4978819;28;20034;-75
2022/02/14 11:59:26;;;;;;;5.28;1.98;;;13.20;48.90;;;;;;4979681;28;20096;-75
2022/02/14 12:01:51;;;;;;;5.07;2.10;;;13.20;49.10;;;;;;4981989;28;20031;-76
2022/02/14 12:04:32;;;;;;;5.53;2.40;;;13.30;49.90;;;;;;4987887;28;20033;-73
2022/02/14 12:07:15;;;;;;;4.25;2.15;;;13.40;49.30;;;;;;4969726;28;20712;-79
2022/02/14 12:09:59;;;;;;;5.32;2.78;;;13.30;49.20;;;;;;4977647;28;20079;-77
2022/02/14 12:12:46;;;;;;;6.45;2.42;;;13.30;50.40;;;;;;4971463;28;20551;-77
2022/02/14 12:20:47;;;;;;;15.25;9.02;;;13.50;49.10;;;;;;4986538;28;20038;-76
2022/02/14 12:23:13;;;;;;;4.60;2.10;;;13.50;50.20;;;;;;4979805;28;20061;-76
2022/02/14 12:25:50;;;;;;;3.50;2.05;;;13.50;50.10;;;;;;4977246;28;20145;-76
2022/02/14 12:28:17;;;;;;;23.95;15.07;;;13.60;50.50;;;;;;4987741;28;20038;-77
2022/02/14 12:30:45;;;;;;;4.55;3.03;;;13.70;50.50;;;;;;4978408;28;20732;-78
2022/02/14 12:33:12;;;;;;;5.60;2.50;;;13.80;49.60;;;;;;4979379;28;20026;-77
2022/02/14 12:36:02;;;;;;;4.13;1.90;;;13.90;50.30;;;;;;4987948;28;20114;-77
2022/02/14 12:38:35;;;;;;;25.67;18.70;;;14.00;49.90;;;;;;4981199;28;20794;-77
2022/02/14 12:41:04;;;;;;;2.95;1.65;;;13.90;50.60;;;;;;4981432;28;20049;-77
2022/02/14 12:43:33;;;;;;;4.03;2.10;;;14.10;49.60;;;;;;4990641;28;20056;-78
2022/02/14 12:46:03;;;;;;;4.00;2.20;;;14.00;49.40;;;;;;4983196;28;20030;-77
2022/02/14 12:48:33;;;;;;;3.75;1.50;;;14.00;50.10;;;;;;4987852;28;20125;-77
2022/02/14 12:51:03;;;;;;;4.93;2.40;;;14.00;49.70;;;;;;4984436;28;20030;-76
2022/02/14 12:53:29;;;;;;;4.43;2.80;;;13.90;50.30;;;;;;4980077;28;20045;-72
2022/02/14 12:56:10;;;;;;;32.40;28.10;;;13.90;50.60;;;;;;4980425;28;20034;-75
2022/02/14 12:58:48;;;;;;;6.75;4.28;;;13.80;51.40;;;;;;4984272;28;20053;-75
2022/02/14 13:01:14;;;;;;;10.43;9.15;;;13.90;51.50;;;;;;4981007;28;20041;-76
2022/02/14 13:03:40;;;;;;;38.47;34.55;;;14.00;51.60;;;;;;4977509;28;20942;-75